Time;durP1;ratioP1;P1;durP2;ratioP2;P2;SDS_P1;SDS_P2;PMS_P1;PMS_P2;Temp;Humidity;BMP_temperature;BMP_pressure;BME280_temperature;BME280_humidity;BME280_pressure;Samples;Min_cycle;Max_cycle;Signal;HPM_P1;HPM_P2
2021/12/10 00:00:47;;;;;;;0.30;0.30;;;12.30;99.90;;;;;;4993527;28;20026;-77
2021/12/10 00:03:21;;;;;;;0.03;0.03;;;12.30;99.90;;;;;;4992443;28;20030;-75
2021/12/10 00:06:00;;;;;;;2.45;1.80;;;12.20;99.90;;;;;;4993591;28;20022;-77
2021/12/10 00:08:30;;;;;;;5.78;1.65;;;12.10;99.90;;;;;;4992505;28;20033;-77
2021/12/10 00:11:00;;;;;;;3.78;1.40;;;12.10;99.90;;;;;;4993057;28;20146;-77
2021/12/10 00:13:26;;;;;;;0.65;0.65;;;12.10;99.90;;;;;;5006837;28;20034;-75
2021/12/10 00:15:55;;;;;;;0.63;0.63;;;12.00;99.90;;;;;;5013210;28;20370;-75
2021/12/10 00:18:25;;;;;;;2.83;1.45;;;12.00;99.90;;;;;;5013013;28;20065;-77
2021/12/10 00:20:57;;;;;;;6.30;1.15;;;11.80;99.90;;;;;;5013160;28;20033;-75
2021/12/10 00:23:23;;;;;;;0.55;0.55;;;11.80;99.90;;;;;;5013295;28;20026;-78
2021/12/10 00:25:51;;;;;;;1.27;1.23;;;11.80;99.90;;;;;;5004509;28;20026;-77
2021/12/10 00:28:33;;;;;;;0.63;0.38;;;11.80;99.90;;;;;;4993549;28;20037;-75
2021/12/10 00:31:19;;;;;;;0.15;0.15;;;11.60;99.90;;;;;;4993549;28;20027;-75
2021/12/10 00:34:01;;;;;;;27.48;1.10;;;11.50;99.90;;;;;;4993171;28;20078;-75
2021/12/10 00:36:27;;;;;;;1.25;1.02;;;11.40;99.90;;;;;;4993350;28;20030;-75
2021/12/10 00:38:53;;;;;;;0.45;0.45;;;11.40;99.90;;;;;;4992121;28;20112;-78
2021/12/10 00:41:21;;;;;;;0.00;0.00;;;11.30;99.90;;;;;;4993453;28;20022;-75
2021/12/10 00:43:47;;;;;;;3.15;2.30;;;11.30;99.90;;;;;;4993393;28;20022;-77
2021/12/10 00:46:13;;;;;;;2.60;1.45;;;11.30;99.90;;;;;;4992824;28;20023;-75
2021/12/10 00:48:39;;;;;;;1.45;1.35;;;11.20;99.90;;;;;;4992561;28;20054;-75
2021/12/10 00:51:08;;;;;;;0.00;0.00;;;11.20;99.90;;;;;;4991686;28;20057;-77
2021/12/10 00:53:35;;;;;;;0.15;0.15;;;11.20;99.90;;;;;;4993060;28;20048;-77
2021/12/10 00:56:01;;;;;;;0.00;0.00;;;11.20;99.90;;;;;;4992158;28;20033;-75
2021/12/10 00:58:29;;;;;;;6.63;1.45;;;11.10;99.90;;;;;;4991047;28;20042;-75
2021/12/10 01:00:58;;;;;;;1.75;0.98;;;11.10;99.90;;;;;;4992397;28;20110;-75
2021/12/10 01:03:31;;;;;;;0.65;0.65;;;11.00;99.90;;;;;;4992945;28;20039;-78
2021/12/10 01:06:01;;;;;;;8.25;2.13;;;11.00;99.90;;;;;;4992869;28;20019;-77
2021/12/10 01:08:28;;;;;;;0.10;0.10;;;11.00;99.90;;;;;;4992736;28;20529;-75
2021/12/10 01:11:02;;;;;;;0.63;0.63;;;11.00;99.90;;;;;;4992703;28;20493;-75
2021/12/10 01:13:33;;;;;;;1.58;1.02;;;11.00;99.90;;;;;;4991873;28;20023;-75
2021/12/10 01:27:02;;;;;;;0.22;0.10;;;10.80;99.90;;;;;;5010816;28;20026;-75
2021/12/10 01:29:34;;;;;;;7.03;2.53;;;10.70;99.90;;;;;;5012447;28;20034;-75
2021/12/10 01:32:02;;;;;;;3.20;1.25;;;10.70;99.90;;;;;;5012331;28;20029;-78
2021/12/10 01:34:29;;;;;;;0.00;0.00;;;10.70;99.90;;;;;;5010469;28;20026;-78
2021/12/10 01:36:56;;;;;;;0.50;0.50;;;10.70;99.90;;;;;;5012335;28;20489;-75
2021/12/10 01:39:27;;;;;;;1.85;0.90;;;10.60;99.90;;;;;;5012265;28;20025;-75
2021/12/10 01:42:01;;;;;;;0.63;0.63;;;10.60;99.90;;;;;;5012427;28;20400;-75
2021/12/10 01:44:31;;;;;;;1.15;0.93;;;10.60;99.90;;;;;;5012122;28;20389;-78
2021/12/10 01:47:01;;;;;;;15.40;2.00;;;10.50;99.90;;;;;;5012261;28;20076;-75
2021/12/10 01:49:27;;;;;;;2.55;1.38;;;10.50;99.90;;;;;;5012055;28;20037;-75
2021/12/10 01:51:53;;;;;;;0.00;0.00;;;10.50;99.90;;;;;;5011895;28;20026;-75
2021/12/10 01:54:30;;;;;;;1.25;1.15;;;10.50;99.90;;;;;;5012174;28;20186;-77
2021/12/10 01:56:57;;;;;;;3.42;2.08;;;10.60;99.90;;;;;;5004307;28;20405;-78
2021/12/10 01:59:25;;;;;;;0.47;0.47;;;10.60;99.90;;;;;;4992234;28;20501;-75
2021/12/10 02:01:55;;;;;;;0.35;0.32;;;10.60;99.90;;;;;;4992031;28;20109;-76
2021/12/10 02:04:24;;;;;;;8.63;1.00;;;10.70;99.90;;;;;;4992061;28;20113;-76
2021/12/10 02:06:50;;;;;;;0.05;0.05;;;10.70;99.90;;;;;;4991172;28;20401;-75
2021/12/10 02:09:16;;;;;;;2.17;1.20;;;10.70;99.90;;;;;;4992510;28;20437;-76
2021/12/10 02:11:42;;;;;;;5.93;2.83;;;10.70;99.90;;;;;;4991786;28;20018;-76
2021/12/10 02:14:08;;;;;;;0.00;0.00;;;10.50;99.90;;;;;;4994371;28;20054;-75
2021/12/10 02:16:36;;;;;;;0.20;0.20;;;10.30;99.90;;;;;;4996005;28;20451;-75
2021/12/10 02:19:04;;;;;;;12.77;3.25;;;10.10;99.90;;;;;;4995370;28;21870;-75
2021/12/10 02:21:33;;;;;;;8.13;2.70;;;10.00;99.90;;;;;;4995837;28;20023;-77
2021/12/10 02:24:00;;;;;;;0.30;0.30;;;9.90;99.90;;;;;;4995912;28;20030;-77
2021/12/10 02:26:30;;;;;;;0.80;0.80;;;9.80;99.90;;;;;;5009318;28;20022;-75
2021/12/10 02:28:56;;;;;;;1.88;1.45;;;9.80;99.90;;;;;;5015285;28;20026;-75
2021/12/10 02:31:24;;;;;;;1.25;0.63;;;9.70;99.90;;;;;;5014054;28;20017;-75
2021/12/10 02:33:50;;;;;;;1.52;1.27;;;9.70;99.90;;;;;;5014900;28;20076;-77
2021/12/10 02:36:17;;;;;;;0.90;0.55;;;9.60;99.90;;;;;;5014961;28;20457;-77
2021/12/10 02:38:46;;;;;;;3.08;0.82;;;9.60;99.90;;;;;;5015094;28;20018;-78
2021/12/10 02:41:14;;;;;;;0.00;0.00;;;9.60;99.90;;;;;;5015264;28;20053;-76
2021/12/10 02:43:40;;;;;;;0.63;0.40;;;9.60;99.90;;;;;;5016189;28;20029;-75
2021/12/10 02:46:06;;;;;;;2.03;0.75;;;9.80;99.90;;;;;;5016541;28;20089;-75
2021/12/10 02:48:32;;;;;;;1.45;1.33;;;9.80;99.90;;;;;;5016272;28;20018;-77
2021/12/10 02:50:59;;;;;;;0.38;0.38;;;9.80;99.90;;;;;;5016018;28;20028;-75
2021/12/10 02:53:28;;;;;;;0.10;0.10;;;9.80;99.90;;;;;;5016067;28;20400;-75
2021/12/10 02:55:58;;;;;;;0.00;0.00;;;9.80;99.90;;;;;;5016965;28;20029;-78
2021/12/10 02:58:24;;;;;;;0.65;0.63;;;9.70;99.90;;;;;;4996453;28;20102;-75
2021/12/10 03:00:53;;;;;;;2.67;1.45;;;9.70;99.90;;;;;;4997539;28;20053;-75
2021/12/10 03:03:19;;;;;;;0.73;0.73;;;9.70;99.90;;;;;;4995232;28;20039;-76
2021/12/10 03:05:44;;;;;;;0.03;0.03;;;9.80;99.90;;;;;;4993625;28;20053;-75
2021/12/10 03:08:11;;;;;;;0.00;0.00;;;9.70;99.90;;;;;;4994136;28;20065;-75
2021/12/10 03:10:37;;;;;;;15.07;4.70;;;9.80;99.90;;;;;;4995121;28;20019;-75
2021/12/10 03:13:05;;;;;;;0.65;0.65;;;9.80;99.90;;;;;;4993899;28;20161;-75
2021/12/10 03:15:32;;;;;;;0.10;0.10;;;9.80;99.90;;;;;;4994985;28;20023;-78
2021/12/10 03:18:00;;;;;;;20.27;1.10;;;9.70;99.90;;;;;;4994862;28;20027;-75
2021/12/10 03:20:29;;;;;;;0.20;0.20;;;9.80;99.90;;;;;;4994959;28;20026;-77
2021/12/10 03:22:56;;;;;;;0.15;0.15;;;9.70;99.90;;;;;;4994744;28;20073;-75
2021/12/10 03:25:22;;;;;;;0.10;0.10;;;9.60;99.90;;;;;;4998407;28;20160;-78
2021/12/10 03:27:48;;;;;;;0.05;0.05;;;9.50;99.90;;;;;;5014376;28;20544;-75
2021/12/10 03:30:19;;;;;;;0.35;0.35;;;9.50;99.90;;;;;;5014213;28;20052;-76
2021/12/10 03:32:45;;;;;;;4.63;1.13;;;9.50;99.90;;;;;;5014175;28;20057;-76
2021/12/10 03:35:20;;;;;;;0.00;0.00;;;9.50;99.90;;;;;;5013631;28;20026;-75
2021/12/10 03:37:46;;;;;;;11.45;3.03;;;9.50;99.90;;;;;;5014160;28;20036;-76
2021/12/10 03:40:14;;;;;;;0.00;0.00;;;9.60;99.90;;;;;;5012858;28;20065;-78
2021/12/10 03:42:41;;;;;;;0.30;0.30;;;9.60;99.90;;;;;;5013864;28;20036;-76
2021/12/10 03:45:09;;;;;;;0.00;0.00;;;9.70;99.90;;;;;;5013770;28;20022;-75
2021/12/10 03:47:35;;;;;;;0.90;0.52;;;9.80;99.90;;;;;;5013972;28;20053;-76
2021/12/10 03:50:02;;;;;;;4.28;1.38;;;9.80;99.90;;;;;;5013540;28;20073;-75
2021/12/10 03:52:28;;;;;;;0.88;0.88;;;9.70;99.90;;;;;;5012193;28;20477;-79
2021/12/10 03:54:54;;;;;;;0.47;0.30;;;9.80;99.90;;;;;;5013660;28;20563;-79
2021/12/10 03:57:20;;;;;;;0.68;0.50;;;9.70;99.90;;;;;;5007622;28;20058;-78
2021/12/10 03:59:46;;;;;;;0.10;0.10;;;9.70;99.90;;;;;;4997676;28;20501;-79
2021/12/10 04:02:12;;;;;;;1.20;1.08;;;9.70;99.90;;;;;;4993246;28;20482;-75
2021/12/10 04:04:45;;;;;;;4.07;0.93;;;9.70;99.90;;;;;;4993694;28;20023;-76
2021/12/10 04:07:15;;;;;;;0.20;0.20;;;9.70;99.90;;;;;;4993858;28;20076;-79
2021/12/10 04:09:41;;;;;;;1.65;0.43;;;9.70;99.90;;;;;;4992468;28;20039;-76
2021/12/10 04:12:08;;;;;;;1.75;1.13;;;9.70;99.90;;;;;;4991732;28;20026;-78
2021/12/10 04:14:36;;;;;;;4.57;0.88;;;9.60;99.90;;;;;;4993833;28;20050;-76
2021/12/10 04:17:04;;;;;;;0.45;0.32;;;9.60;99.90;;;;;;4993467;28;20030;-76
2021/12/10 04:19:32;;;;;;;0.40;0.40;;;9.60;99.90;;;;;;4993392;28;20026;-79
2021/12/10 04:21:58;;;;;;;2.28;1.08;;;9.60;99.90;;;;;;4993622;28;20119;-78
2021/12/10 04:24:27;;;;;;;0.00;0.00;;;9.60;99.90;;;;;;4993612;28;20025;-76
2021/12/10 04:26:54;;;;;;;4.13;1.55;;;9.50;99.90;;;;;;5010790;28;20493;-76
2021/12/10 04:29:21;;;;;;;0.43;0.43;;;9.50;99.90;;;;;;5013170;28;20037;-79
2021/12/10 04:31:52;;;;;;;0.00;0.00;;;9.60;99.90;;;;;;5013229;28;20025;-76
2021/12/10 04:34:20;;;;;;;0.25;0.25;;;9.70;99.90;;;;;;5012773;28;20505;-79
2021/12/10 04:36:46;;;;;;;0.00;0.00;;;9.70;99.90;;;;;;5012843;28;20037;-76
2021/12/10 04:39:11;;;;;;;0.00;0.00;;;9.80;99.90;;;;;;5012807;28;20025;-76
2021/12/10 04:41:37;;;;;;;0.00;0.00;;;9.80;99.90;;;;;;5013115;28;20053;-76
2021/12/10 04:44:04;;;;;;;0.95;0.63;;;9.70;99.90;;;;;;5012814;28;20148;-78
2021/12/10 04:46:30;;;;;;;0.00;0.00;;;9.70;99.90;;;;;;5012983;28;20397;-78
2021/12/10 04:49:12;;;;;;;0.00;0.00;;;9.60;99.90;;;;;;5012472;28;20022;-76
2021/12/10 04:51:41;;;;;;;0.00;0.00;;;9.40;99.90;;;;;;5012774;28;20022;-76
2021/12/10 04:54:08;;;;;;;0.00;0.00;;;9.30;99.90;;;;;;5012451;28;20028;-76
2021/12/10 04:56:35;;;;;;;0.00;0.00;;;9.30;99.90;;;;;;5008837;28;20049;-79
2021/12/10 04:59:03;;;;;;;0.65;0.65;;;9.20;99.90;;;;;;4991742;28;20084;-79
2021/12/10 05:01:30;;;;;;;0.00;0.00;;;9.20;99.90;;;;;;4992711;28;20037;-76
2021/12/10 05:03:55;;;;;;;6.25;2.65;;;9.20;99.90;;;;;;4992576;28;20077;-76
2021/12/10 05:06:21;;;;;;;0.00;0.00;;;9.10;99.90;;;;;;4993012;28;20031;-76
2021/12/10 05:08:48;;;;;;;1.27;1.17;;;9.20;99.90;;;;;;4991981;28;20435;-76
2021/12/10 05:11:14;;;;;;;0.05;0.05;;;9.20;99.90;;;;;;4992720;28;20026;-79
2021/12/10 05:13:43;;;;;;;1.95;1.65;;;9.30;99.90;;;;;;4992367;28;20023;-79
2021/12/10 05:16:10;;;;;;;5.00;2.00;;;9.30;99.90;;;;;;4992819;28;20561;-79
2021/12/10 05:18:39;;;;;;;0.30;0.30;;;9.30;99.90;;;;;;4992493;28;20023;-76
2021/12/10 05:21:08;;;;;;;0.63;0.63;;;9.30;99.90;;;;;;4992878;28;20169;-76
2021/12/10 05:23:34;;;;;;;3.83;2.22;;;9.30;99.90;;;;;;4992853;28;20105;-79
2021/12/10 05:26:00;;;;;;;0.00;0.00;;;9.30;99.90;;;;;;5002770;28;20057;-79
2021/12/10 05:28:27;;;;;;;0.00;0.00;;;9.30;99.90;;;;;;5011293;28;20509;-76
2021/12/10 05:30:55;;;;;;;0.00;0.00;;;9.30;99.90;;;;;;5012557;28;20052;-79
2021/12/10 05:33:25;;;;;;;1.20;0.98;;;9.40;99.90;;;;;;5012317;28;20030;-79
2021/12/10 05:35:52;;;;;;;0.68;0.68;;;9.40;99.90;;;;;;5012134;28;20507;-79
2021/12/10 05:38:20;;;;;;;11.05;3.60;;;9.40;99.90;;;;;;5012514;28;20389;-80
2021/12/10 05:40:49;;;;;;;3.45;1.95;;;9.40;99.90;;;;;;5012354;28;20105;-76
2021/12/10 05:43:16;;;;;;;0.00;0.00;;;9.50;99.90;;;;;;5011366;28;20022;-76
2021/12/10 05:45:42;;;;;;;0.08;0.08;;;9.40;99.90;;;;;;5012330;28;20029;-76
2021/12/10 05:48:08;;;;;;;1.02;0.65;;;9.30;99.90;;;;;;5012416;28;20026;-79
2021/12/10 05:50:36;;;;;;;7.68;1.65;;;9.30;99.90;;;;;;5015731;28;20021;-80
2021/12/10 05:53:03;;;;;;;0.40;0.40;;;9.20;99.90;;;;;;5015783;28;20088;-76
2021/12/10 05:55:28;;;;;;;0.13;0.13;;;9.20;99.90;;;;;;5014861;28;20037;-76
2021/12/10 05:57:54;;;;;;;0.25;0.25;;;9.20;99.90;;;;;;5010630;28;20062;-77
2021/12/10 06:00:33;;;;;;;1.70;1.15;;;9.20;99.90;;;;;;4994922;28;20029;-77
2021/12/10 06:02:59;;;;;;;0.00;0.00;;;9.20;99.90;;;;;;4996270;28;20027;-80
2021/12/10 06:05:26;;;;;;;4.38;2.30;;;9.20;99.90;;;;;;4995830;28;20102;-77
2021/12/10 06:07:52;;;;;;;0.05;0.05;;;9.20;99.90;;;;;;4996169;28;20050;-79
2021/12/10 06:10:20;;;;;;;0.25;0.10;;;9.20;99.90;;;;;;4996029;28;20065;-76
2021/12/10 06:12:46;;;;;;;0.03;0.03;;;9.20;99.90;;;;;;4995494;28;20113;-77
2021/12/10 06:15:15;;;;;;;0.80;0.80;;;9.20;99.90;;;;;;4995936;28;20525;-77
2021/12/10 06:17:41;;;;;;;0.00;0.00;;;9.20;99.90;;;;;;4994529;28;20034;-80
2021/12/10 06:20:09;;;;;;;1.17;1.05;;;9.20;99.90;;;;;;4995434;28;20034;-79
2021/12/10 06:22:35;;;;;;;1.58;0.75;;;9.10;99.90;;;;;;4995981;28;20038;-76
2021/12/10 06:25:01;;;;;;;1.23;0.75;;;9.20;99.90;;;;;;4997834;28;20026;-77
2021/12/10 06:27:27;;;;;;;0.15;0.15;;;9.20;99.90;;;;;;5015594;28;20041;-79
2021/12/10 06:29:53;;;;;;;0.20;0.20;;;9.20;99.90;;;;;;5015533;28;20022;-79
2021/12/10 06:32:19;;;;;;;0.32;0.32;;;9.20;99.90;;;;;;5015561;28;20405;-77
2021/12/10 06:34:44;;;;;;;0.30;0.30;;;9.20;99.90;;;;;;5012305;28;20030;-77
2021/12/10 06:37:10;;;;;;;0.00;0.00;;;9.10;99.90;;;;;;4994997;28;20092;-77
2021/12/10 06:39:36;;;;;;;8.57;0.75;;;9.10;99.90;;;;;;4995416;28;20105;-76
2021/12/10 06:42:03;;;;;;;0.00;0.00;;;9.10;99.90;;;;;;4994188;28;20037;-80
2021/12/10 06:44:29;;;;;;;0.00;0.00;;;9.00;99.90;;;;;;4998661;28;20101;-77
2021/12/10 06:46:54;;;;;;;0.98;0.52;;;9.10;99.90;;;;;;5014221;28;20028;-77
2021/12/10 06:49:20;;;;;;;0.57;0.57;;;9.20;99.90;;;;;;4995018;28;20034;-76
2021/12/10 06:51:47;;;;;;;0.00;0.00;;;9.20;99.90;;;;;;4995275;28;20018;-77
2021/12/10 06:54:12;;;;;;;0.20;0.20;;;9.20;99.90;;;;;;4994898;28;20113;-80
2021/12/10 06:56:38;;;;;;;0.60;0.60;;;9.30;99.90;;;;;;4995491;28;20468;-79
2021/12/10 06:59:06;;;;;;;0.10;0.03;;;9.20;99.90;;;;;;4993907;28;20022;-77
2021/12/10 07:01:39;;;;;;;2.95;2.10;;;9.20;99.90;;;;;;4993211;28;20123;-77
2021/12/10 07:04:09;;;;;;;0.10;0.10;;;9.20;99.90;;;;;;4994373;28;20109;-77
2021/12/10 07:06:37;;;;;;;0.10;0.10;;;9.10;99.90;;;;;;4994744;28;20033;-80
2021/12/10 07:09:09;;;;;;;0.43;0.40;;;9.10;99.90;;;;;;4993236;28;20019;-77
2021/12/10 07:11:34;;;;;;;0.00;0.00;;;9.10;99.90;;;;;;5002608;28;20030;-77
2021/12/10 07:14:00;;;;;;;0.00;0.00;;;9.00;99.90;;;;;;4994069;28;20057;-77
2021/12/10 07:16:28;;;;;;;0.85;0.63;;;9.00;99.90;;;;;;4994919;28;20033;-77
2021/12/10 07:18:56;;;;;;;2.92;0.98;;;9.00;99.90;;;;;;4994303;28;20026;-77
2021/12/10 07:21:23;;;;;;;0.55;0.55;;;9.10;99.90;;;;;;4994761;28;20069;-80
2021/12/10 07:23:49;;;;;;;0.20;0.20;;;9.10;99.90;;;;;;4994503;28;20026;-77
2021/12/10 07:26:15;;;;;;;0.00;0.00;;;9.10;99.90;;;;;;5006410;28;20860;-76
2021/12/10 07:28:41;;;;;;;1.23;1.13;;;9.10;99.90;;;;;;5012379;28;20105;-76
2021/12/10 07:31:08;;;;;;;0.30;0.25;;;9.10;99.90;;;;;;5000257;28;20109;-77
2021/12/10 07:33:34;;;;;;;2.88;1.10;;;9.10;99.90;;;;;;4993821;28;20027;-77
2021/12/10 07:36:02;;;;;;;0.00;0.00;;;9.20;99.90;;;;;;5005245;28;20041;-79
2021/12/10 07:38:27;;;;;;;0.00;0.00;;;9.20;99.90;;;;;;4994174;28;20026;-77
2021/12/10 07:40:53;;;;;;;0.50;0.50;;;9.20;99.90;;;;;;5004769;28;20026;-77
2021/12/10 07:43:20;;;;;;;0.85;0.47;;;9.20;99.90;;;;;;5013682;28;20029;-77
2021/12/10 07:45:49;;;;;;;0.13;0.13;;;9.20;99.90;;;;;;5013732;28;20087;-79
2021/12/10 07:48:18;;;;;;;0.00;0.00;;;9.20;99.90;;;;;;5013365;28;20018;-77
2021/12/10 07:50:53;;;;;;;0.00;0.00;;;9.30;99.90;;;;;;5013226;28;20029;-77
2021/12/10 07:53:29;;;;;;;0.00;0.00;;;9.30;99.90;;;;;;5013335;28;20037;-77
2021/12/10 07:55:56;;;;;;;0.75;0.75;;;9.30;99.90;;;;;;5013776;28;20065;-79
2021/12/10 07:58:23;;;;;;;0.93;0.73;;;9.30;99.90;;;;;;5012281;28;20580;-77
2021/12/10 08:00:49;;;;;;;0.10;0.10;;;9.30;99.90;;;;;;5011003;28;20397;-79
2021/12/10 08:03:15;;;;;;;0.63;0.63;;;9.40;99.90;;;;;;4993788;28;20523;-79
2021/12/10 08:05:41;;;;;;;0.00;0.00;;;9.50;99.90;;;;;;5007554;28;20026;-77
2021/12/10 08:08:08;;;;;;;0.00;0.00;;;9.50;99.90;;;;;;5011895;28;20024;-77
2021/12/10 08:10:35;;;;;;;1.40;0.90;;;9.50;99.90;;;;;;5012916;28;20108;-77
2021/12/10 08:13:02;;;;;;;0.00;0.00;;;9.50;99.90;;;;;;4998474;28;20025;-79
2021/12/10 08:15:27;;;;;;;0.47;0.30;;;9.50;99.90;;;;;;4991960;28;20470;-77
2021/12/10 08:17:53;;;;;;;1.02;0.85;;;9.40;99.90;;;;;;4993319;28;20026;-79
2021/12/10 08:20:22;;;;;;;0.25;0.25;;;9.40;99.90;;;;;;4991782;28;20093;-77
2021/12/10 08:22:50;;;;;;;0.10;0.10;;;9.30;99.90;;;;;;4993305;28;20505;-78
2021/12/10 08:25:18;;;;;;;0.00;0.00;;;9.30;99.90;;;;;;4995875;28;20029;-80
2021/12/10 08:27:44;;;;;;;0.28;0.28;;;9.30;99.90;;;;;;5012745;28;20018;-77
2021/12/10 08:30:14;;;;;;;0.00;0.00;;;9.30;99.90;;;;;;5013022;28;20485;-78
2021/12/10 08:32:41;;;;;;;0.60;0.60;;;9.40;99.90;;;;;;5013121;28;20099;-77
2021/12/10 08:35:10;;;;;;;0.00;0.00;;;9.40;99.90;;;;;;5007729;28;20030;-77
2021/12/10 08:37:36;;;;;;;0.00;0.00;;;9.40;99.90;;;;;;4993410;28;20489;-79
2021/12/10 08:40:04;;;;;;;0.05;0.05;;;9.40;99.90;;;;;;4997990;28;20038;-80
2021/12/10 08:42:30;;;;;;;0.57;0.10;;;9.50;99.90;;;;;;5012961;28;20024;-77
2021/12/10 08:44:56;;;;;;;0.00;0.00;;;9.60;99.90;;;;;;5011437;28;20097;-77
2021/12/10 08:47:21;;;;;;;2.25;1.08;;;9.60;99.90;;;;;;5012671;28;20041;-78
2021/12/10 08:49:47;;;;;;;0.00;0.00;;;9.60;99.90;;;;;;5012404;28;20030;-80
2021/12/10 08:52:14;;;;;;;0.00;0.00;;;9.70;99.90;;;;;;5012390;28;20109;-80
2021/12/10 08:54:41;;;;;;;5.05;2.35;;;9.80;99.90;;;;;;5012880;28;20036;-80
2021/12/10 08:57:09;;;;;;;7.47;2.63;;;9.80;99.90;;;;;;5012113;28;20061;-77
2021/12/10 08:59:38;;;;;;;0.00;0.00;;;9.80;99.90;;;;;;5012263;28;20026;-77
2021/12/10 09:02:10;;;;;;;1.65;0.80;;;9.80;99.90;;;;;;5010391;28;20048;-78
2021/12/10 09:04:36;;;;;;;0.00;0.00;;;9.90;99.90;;;;;;5009848;28;20029;-78
2021/12/10 09:07:06;;;;;;;0.20;0.20;;;10.00;99.90;;;;;;5012381;28;20018;-80
2021/12/10 09:09:34;;;;;;;0.95;0.90;;;10.00;99.90;;;;;;4995826;28;20022;-77
2021/12/10 09:12:03;;;;;;;0.20;0.20;;;10.00;99.90;;;;;;4994068;28;20379;-77
2021/12/10 09:14:37;;;;;;;1.35;0.45;;;10.00;99.90;;;;;;4992706;28;20026;-77
2021/12/10 09:17:04;;;;;;;0.00;0.00;;;10.00;99.90;;;;;;5005486;28;20541;-80
2021/12/10 09:19:30;;;;;;;0.55;0.55;;;10.10;99.90;;;;;;4988859;28;20035;-80
2021/12/10 09:21:56;;;;;;;0.95;0.95;;;10.10;99.90;;;;;;4991883;28;20374;-79
2021/12/10 09:24:23;;;;;;;0.00;0.00;;;10.10;99.90;;;;;;4995354;28;20509;-77
2021/12/10 09:26:56;;;;;;;0.17;0.17;;;10.10;99.90;;;;;;5013395;28;20029;-77
2021/12/10 09:29:24;;;;;;;1.48;0.88;;;10.20;99.90;;;;;;5014989;28;20037;-79
2021/12/10 09:31:51;;;;;;;0.20;0.20;;;10.20;99.90;;;;;;4995491;28;20451;-80
2021/12/10 09:34:18;;;;;;;0.73;0.73;;;10.20;99.90;;;;;;4996243;28;20038;-79
2021/12/10 09:36:47;;;;;;;0.00;0.00;;;10.20;99.90;;;;;;4996389;28;20034;-77
2021/12/10 09:39:15;;;;;;;2.42;1.23;;;10.20;99.90;;;;;;4996334;28;20104;-77
2021/12/10 09:41:41;;;;;;;0.32;0.32;;;10.20;99.90;;;;;;4995340;28;20057;-79
2021/12/10 09:44:07;;;;;;;0.10;0.10;;;10.20;99.90;;;;;;4995915;28;20105;-79
2021/12/10 09:46:38;;;;;;;0.10;0.10;;;10.30;99.90;;;;;;4998559;28;20033;-79
2021/12/10 09:49:06;;;;;;;0.35;0.20;;;10.30;99.90;;;;;;5014166;28;20397;-77
2021/12/10 09:51:37;;;;;;;0.00;0.00;;;10.40;99.90;;;;;;5015626;28;20551;-76
2021/12/10 09:54:10;;;;;;;0.10;0.10;;;10.40;99.90;;;;;;5013907;28;20030;-77
2021/12/10 09:56:41;;;;;;;0.03;0.03;;;10.40;99.90;;;;;;5015877;28;20180;-80
2021/12/10 09:59:07;;;;;;;0.10;0.10;;;10.40;99.90;;;;;;5010775;28;20513;-79
2021/12/10 10:01:37;;;;;;;0.00;0.00;;;10.40;99.90;;;;;;4998808;28;20047;-77
2021/12/10 10:04:04;;;;;;;0.22;0.22;;;10.40;99.90;;;;;;5002520;28;20481;-77
2021/12/10 10:06:37;;;;;;;0.57;0.57;;;10.40;99.90;;;;;;5001299;28;20118;-79
2021/12/10 10:09:06;;;;;;;0.00;0.00;;;10.40;99.90;;;;;;4993604;28;20027;-77
2021/12/10 10:11:34;;;;;;;0.00;0.00;;;10.40;99.90;;;;;;4991815;28;20113;-78
2021/12/10 10:14:00;;;;;;;0.45;0.45;;;10.50;99.90;;;;;;4996778;28;20508;-77
2021/12/10 10:16:28;;;;;;;0.20;0.20;;;10.50;99.90;;;;;;5012170;28;20010;-77
2021/12/10 10:18:55;;;;;;;0.00;0.00;;;10.50;99.90;;;;;;5013007;28;20045;-78
2021/12/10 10:21:31;;;;;;;0.00;0.00;;;10.50;99.90;;;;;;5013499;28;20029;-77
2021/12/10 10:23:57;;;;;;;2.50;2.08;;;10.50;99.90;;;;;;5000330;28;20053;-79
2021/12/10 10:26:32;;;;;;;0.00;0.00;;;10.60;99.90;;;;;;5007574;28;20076;-77
2021/12/10 10:29:07;;;;;;;0.00;0.00;;;10.50;99.90;;;;;;5009865;28;20056;-79
2021/12/10 10:31:33;;;;;;;1.08;0.70;;;10.60;99.90;;;;;;5015164;28;20030;-77
2021/12/10 10:34:00;;;;;;;0.20;0.20;;;10.60;99.90;;;;;;5013968;28;20041;-79
2021/12/10 10:36:29;;;;;;;0.22;0.22;;;10.70;99.90;;;;;;5013680;28;20025;-79
2021/12/10 10:39:04;;;;;;;0.20;0.20;;;10.70;99.90;;;;;;5001647;28;20023;-79
2021/12/10 10:41:31;;;;;;;0.20;0.20;;;10.70;99.90;;;;;;4994409;28;20038;-78
2021/12/10 10:43:57;;;;;;;0.10;0.10;;;10.90;99.90;;;;;;4995072;28;20081;-77
2021/12/10 10:46:24;;;;;;;1.45;1.35;;;11.00;99.90;;;;;;4998893;28;20026;-77
2021/12/10 10:48:50;;;;;;;2.55;1.17;;;11.10;99.90;;;;;;4994429;28;20030;-77
2021/12/10 10:51:24;;;;;;;0.63;0.43;;;11.20;99.90;;;;;;5010404;28;20396;-77
2021/12/10 10:53:53;;;;;;;1.35;0.80;;;11.10;99.90;;;;;;5014423;28;20068;-77
2021/12/10 10:56:28;;;;;;;0.05;0.05;;;11.10;99.90;;;;;;5012946;28;20450;-77
2021/12/10 10:58:58;;;;;;;0.90;0.55;;;11.00;99.90;;;;;;5007169;28;20026;-77
2021/12/10 11:01:40;;;;;;;0.43;0.43;;;11.00;99.90;;;;;;4994214;28;20081;-77
2021/12/10 11:04:25;;;;;;;3.13;1.42;;;11.10;99.90;;;;;;4993125;28;20504;-79
2021/12/10 11:06:55;;;;;;;0.00;0.00;;;11.20;99.90;;;;;;4994881;28;20072;-77
2021/12/10 11:09:28;;;;;;;1.17;1.08;;;11.20;99.90;;;;;;5005957;28;20030;-79
2021/12/10 11:12:01;;;;;;;0.00;0.00;;;11.10;99.90;;;;;;5013318;28;20101;-77
2021/12/10 11:14:42;;;;;;;0.45;0.45;;;10.90;99.90;;;;;;5014030;28;20017;-77
2021/12/10 11:17:25;;;;;;;0.20;0.20;;;10.60;99.90;;;;;;5012422;28;20036;-79
2021/12/10 11:19:59;;;;;;;1.85;1.27;;;10.50;99.90;;;;;;5013446;28;20050;-79
2021/12/10 11:22:26;;;;;;;0.57;0.30;;;10.30;99.90;;;;;;5013820;28;20388;-77
2021/12/10 11:24:57;;;;;;;0.75;0.17;;;10.10;99.90;;;;;;5015579;28;20097;-77
2021/12/10 11:27:28;;;;;;;0.73;0.52;;;10.20;99.90;;;;;;5015463;28;20029;-79
2021/12/10 11:30:03;;;;;;;0.00;0.00;;;10.30;99.90;;;;;;5016728;28;20057;-79
2021/12/10 11:32:44;;;;;;;0.00;0.00;;;10.70;99.90;;;;;;5014240;28;20026;-78
2021/12/10 11:35:26;;;;;;;0.13;0.13;;;10.90;99.90;;;;;;5013691;28;20034;-77
2021/12/10 11:38:00;;;;;;;2.80;1.67;;;11.20;99.90;;;;;;5013649;28;20064;-77
2021/12/10 11:41:00;;;;;;;0.57;0.57;;;11.30;99.90;;;;;;5013564;28;20512;-79
2021/12/10 11:49:06;;;;;;;24.48;3.05;;;11.20;99.90;;;;;;5014004;28;20105;-77
2021/12/10 11:51:58;;;;;;;0.20;0.10;;;11.20;99.90;;;;;;4996109;28;20030;-79
2021/12/10 11:54:30;;;;;;;0.00;0.00;;;11.10;99.90;;;;;;4993768;28;20026;-77
2021/12/10 11:57:24;;;;;;;0.38;0.35;;;11.10;99.90;;;;;;4992432;28;20061;-79
2021/12/10 12:00:19;;;;;;;0.05;0.05;;;11.20;99.90;;;;;;5008565;28;20037;-76
2021/12/10 12:02:52;;;;;;;0.00;0.00;;;11.10;99.90;;;;;;5011481;28;20120;-77
2021/12/10 12:05:22;;;;;;;0.00;0.00;;;11.20;99.90;;;;;;5011585;28;20022;-79
2021/12/10 12:07:55;;;;;;;0.05;0.05;;;11.30;99.90;;;;;;5006926;28;20017;-78
2021/12/10 12:10:45;;;;;;;2.50;1.00;;;11.40;99.90;;;;;;5014766;28;20038;-77
2021/12/10 12:15:46;;;;;;;0.00;0.00;;;11.80;99.90;;;;;;4993577;28;20137;-77
2021/12/10 12:18:14;;;;;;;0.17;0.17;;;11.70;99.90;;;;;;4993014;28;20401;-77
2021/12/10 12:20:43;;;;;;;0.00;0.00;;;11.80;99.90;;;;;;4993261;28;20038;-79
2021/12/10 12:26:18;;;;;;;0.82;0.80;;;12.00;99.90;;;;;;5004158;28;20123;-77
2021/12/10 12:28:47;;;;;;;0.00;0.00;;;11.90;99.90;;;;;;5012996;28;20014;-77
2021/12/10 12:31:18;;;;;;;0.00;0.00;;;11.90;99.90;;;;;;5012715;28;20109;-77
2021/12/10 12:34:09;;;;;;;2.92;1.02;;;11.90;99.90;;;;;;5012457;28;20026;-79
2021/12/10 12:37:03;;;;;;;1.55;0.98;;;11.80;99.90;;;;;;5012176;28;20084;-77
2021/12/10 12:39:31;;;;;;;1.35;1.25;;;11.70;99.90;;;;;;5007270;28;20405;-77
2021/12/10 12:41:59;;;;;;;0.00;0.00;;;11.90;99.90;;;;;;4997581;28;20088;-77
2021/12/10 12:44:30;;;;;;;0.00;0.00;;;11.50;99.90;;;;;;4993279;28;20073;-76
2021/12/10 12:46:55;;;;;;;0.00;0.00;;;10.30;99.90;;;;;;5006085;28;20480;-79
2021/12/10 12:49:21;;;;;;;0.00;0.00;;;9.70;99.90;;;;;;5012265;28;20032;-77
2021/12/10 12:52:29;;;;;;;0.00;0.00;;;9.60;99.90;;;;;;5012203;28;20392;-77
2021/12/10 12:55:32;;;;;;;13.32;0.38;;;9.90;99.90;;;;;;4971047;28;20065;-77
2021/12/10 12:58:22;;;;;;;0.00;0.00;;;10.20;99.90;;;;;;5010488;28;20116;-79
2021/12/10 13:00:57;;;;;;;0.00;0.00;;;10.20;99.90;;;;;;4992405;28;20034;-78
2021/12/10 13:03:35;;;;;;;0.00;0.00;;;10.10;99.90;;;;;;4991668;28;20030;-78
2021/12/10 13:06:06;;;;;;;0.00;0.00;;;10.00;99.90;;;;;;4990559;28;20018;-77
2021/12/10 13:08:35;;;;;;;0.00;0.00;;;10.00;99.90;;;;;;4993618;28;20070;-77
2021/12/10 13:11:13;;;;;;;0.00;0.00;;;10.10;99.90;;;;;;5010949;28;20389;-79
2021/12/10 13:13:46;;;;;;;0.00;0.00;;;10.30;99.90;;;;;;4992683;28;20026;-78
2021/12/10 13:16:19;;;;;;;0.00;0.00;;;10.50;99.90;;;;;;4992235;28;20134;-78
2021/12/10 13:18:45;;;;;;;0.30;0.30;;;10.70;99.90;;;;;;4992324;28;20146;-77
2021/12/10 13:21:12;;;;;;;0.52;0.52;;;10.80;99.90;;;;;;4992244;28;20045;-77
2021/12/10 13:23:38;;;;;;;1.17;0.10;;;10.90;99.90;;;;;;4992720;28;20032;-78
2021/12/10 13:26:09;;;;;;;0.00;0.00;;;10.90;99.90;;;;;;5002855;28;20028;-77